Time;durP1;ratioP1;P1;durP2;ratioP2;P2;SDS_P1;SDS_P2;PMS_P1;PMS_P2;Temp;Humidity;BMP_temperature;BMP_pressure;BME280_temperature;BME280_humidity;BME280_pressure;Samples;Min_cycle;Max_cycle;Signal;HPM_P1;HPM_P2
2022/06/14 00:03:03;;;;;;;0.77;0.55;;;;;;;26.73;36.74;99362.66;5019960;28;20044;-70
2022/06/14 00:05:29;;;;;;;0.93;0.63;;;;;;;26.71;36.90;99364.25;5014260;28;20042;-72
2022/06/14 00:07:55;;;;;;;0.68;0.50;;;;;;;26.71;37.06;99361.44;5016523;28;20054;-71
2022/06/14 00:10:20;;;;;;;0.47;0.40;;;;;;;26.71;36.95;99367.84;5018970;28;20077;-71
2022/06/14 00:12:46;;;;;;;0.60;0.50;;;;;;;26.71;36.71;99369.88;5015873;28;20037;-72
2022/06/14 00:15:11;;;;;;;0.70;0.50;;;;;;;26.69;37.04;99361.88;5016929;28;20060;-72
2022/06/14 00:17:37;;;;;;;0.60;0.50;;;;;;;26.72;36.60;99365.84;5027990;28;20470;-71
2022/06/14 00:20:03;;;;;;;0.88;0.60;;;;;;;26.70;36.99;99365.47;5012381;28;20061;-71
2022/06/14 00:22:28;;;;;;;1.00;0.50;;;;;;;26.66;36.64;99368.34;5011044;28;20052;-72
2022/06/14 00:24:55;;;;;;;0.73;0.60;;;;;;;26.65;36.64;99366.75;5008380;28;20033;-71
2022/06/14 00:27:21;;;;;;;1.02;0.50;;;;;;;26.66;37.03;99370.34;5009141;28;20456;-71
2022/06/14 00:29:46;;;;;;;0.50;0.47;;;;;;;26.65;37.06;99372.34;5022612;28;20417;-72
2022/06/14 00:32:12;;;;;;;0.52;0.50;;;;;;;26.66;36.87;99373.94;5026289;28;20045;-72
2022/06/14 00:34:37;;;;;;;1.02;0.65;;;;;;;26.65;36.90;99377.13;4999674;28;20513;-71
2022/06/14 00:37:03;;;;;;;0.88;0.60;;;;;;;26.64;37.05;99367.13;5012942;28;20528;-71
2022/06/14 00:39:29;;;;;;;1.95;0.50;;;;;;;26.62;36.95;99373.16;5007256;28;20054;-71
2022/06/14 00:41:56;;;;;;;0.95;0.50;;;;;;;26.61;36.88;99369.56;5018735;28;20038;-71
2022/06/14 00:44:27;;;;;;;0.93;0.57;;;;;;;26.63;37.01;99371.16;5012455;28;20080;-71
2022/06/14 00:47:04;;;;;;;0.85;0.50;;;;;;;26.62;36.74;99373.16;5023326;28;20132;-71
2022/06/14 00:49:33;;;;;;;0.90;0.50;;;;;;;26.64;36.70;99375.56;5021825;28;20046;-71
2022/06/14 00:52:08;;;;;;;0.70;0.60;;;;;;;26.62;36.80;99364.75;5018912;28;20049;-71
2022/06/14 00:54:40;;;;;;;0.70;0.50;;;;;;;26.61;37.03;99372.38;5002784;28;20045;-71
2022/06/14 00:57:14;;;;;;;0.60;0.50;;;;;;;26.59;36.94;99366.38;5010160;28;20502;-72
2022/06/14 00:59:51;;;;;;;0.70;0.40;;;;;;;26.58;36.79;99361.19;5010131;28;20049;-71
2022/06/14 01:02:26;;;;;;;0.80;0.55;;;;;;;26.59;36.65;99362.78;5010689;28;20564;-71
2022/06/14 01:04:54;;;;;;;0.73;0.50;;;;;;;26.58;36.76;99364.78;5017683;28;20038;-72
2022/06/14 01:07:27;;;;;;;0.73;0.50;;;;;;;26.60;36.81;99372.78;5020475;28;20046;-71
2022/06/14 01:10:08;;;;;;;0.40;0.40;;;;;;;26.59;36.94;99365.59;5025591;28;20111;-71
2022/06/14 01:12:36;;;;;;;0.85;0.55;;;;;;;26.58;36.74;99366.81;5006892;28;20069;-71
2022/06/14 01:15:13;;;;;;;0.80;0.50;;;;;;;26.58;36.62;99366.81;4993125;28;20134;-71
2022/06/14 01:17:45;;;;;;;0.50;0.50;;;;;;;26.56;36.99;99375.63;5008691;28;20422;-70
2022/06/14 01:20:14;;;;;;;0.80;0.50;;;;;;;26.56;36.57;99363.59;5023149;28;20049;-71
2022/06/14 01:22:40;;;;;;;0.90;0.60;;;;;;;26.54;36.88;99361.22;5013815;28;20038;-71
2022/06/14 01:25:06;;;;;;;1.02;0.60;;;;;;;26.54;36.50;99366.03;5024311;28;20072;-71
2022/06/14 01:27:35;;;;;;;0.95;0.60;;;;;;;26.53;36.77;99358.84;5019512;28;20049;-71
2022/06/14 01:30:06;;;;;;;0.57;0.50;;;;;;;26.53;36.94;99358.84;5012361;28;20100;-72
2022/06/14 01:32:36;;;;;;;0.35;0.35;;;;;;;26.52;36.81;99360.06;5019539;28;20426;-72
2022/06/14 01:35:08;;;;;;;0.68;0.60;;;;;;;26.52;36.71;99365.66;5014507;28;20542;-72
2022/06/14 01:37:34;;;;;;;0.52;0.40;;;;;;;26.53;36.67;99370.84;5025259;28;20072;-72
2022/06/14 01:40:03;;;;;;;0.80;0.50;;;;;;;26.51;36.80;99362.06;5025753;28;20046;-70
2022/06/14 01:42:46;;;;;;;0.65;0.50;;;;;;;26.52;36.64;99362.84;5008823;28;20116;-70
2022/06/14 01:45:35;;;;;;;1.30;0.57;;;;;;;26.52;36.88;99362.84;5016421;28;20038;-70
2022/06/14 01:48:22;;;;;;;0.93;0.50;;;;;;;26.53;36.73;99364.44;5013907;28;20068;-70
2022/06/14 01:53:46;;;;;;;0.65;0.45;;;;;;;26.50;36.38;99360.44;5026036;28;20572;-70
2022/06/14 01:56:36;;;;;;;0.45;0.45;;;;;;;26.49;36.54;99361.66;5005882;28;20046;-71
2022/06/14 01:59:29;;;;;;;0.52;0.43;;;;;;;26.51;36.75;99364.06;5013584;28;20038;-71
2022/06/14 02:02:10;;;;;;;1.40;0.38;;;;;;;26.50;36.32;99365.25;5015543;28;20096;-71
2022/06/14 02:04:47;;;;;;;0.82;0.43;;;;;;;26.47;36.79;99358.47;5015664;28;20060;-71
2022/06/14 02:07:33;;;;;;;0.70;0.50;;;;;;;26.47;36.79;99358.47;5018081;28;20041;-72
2022/06/14 02:10:24;;;;;;;0.40;0.40;;;;;;;26.47;36.77;99360.50;5024526;28;20050;-72
2022/06/14 02:13:40;;;;;;;0.98;0.43;;;;;;;26.47;36.52;99364.09;5015169;28;20049;-70
2022/06/14 02:16:19;;;;;;;0.60;0.50;;;;;;;26.45;36.76;99363.72;4992853;28;20054;-70
2022/06/14 02:18:52;;;;;;;0.80;0.50;;;;;;;26.45;36.46;99368.53;5015918;28;20052;-70
2022/06/14 02:21:32;;;;;;;0.70;0.45;;;;;;;26.44;36.81;99370.53;4992597;28;20076;-71
2022/06/14 02:24:09;;;;;;;0.90;0.57;;;;;;;26.44;36.80;99369.75;5009697;28;20104;-71
2022/06/14 02:26:44;;;;;;;0.70;0.40;;;;;;;26.44;36.39;99366.94;5023607;28;20050;-72
2022/06/14 02:29:21;;;;;;;1.77;0.63;;;;;;;26.42;36.56;99366.53;5010539;28;20046;-71
2022/06/14 02:31:54;;;;;;;0.68;0.50;;;;;;;26.42;36.55;99363.72;5015803;28;20041;-71
2022/06/14 02:34:28;;;;;;;0.55;0.50;;;;;;;26.45;36.78;99376.94;5014467;28;20502;-71
2022/06/14 02:37:13;;;;;;;0.45;0.40;;;;;;;26.41;36.65;99367.75;5003862;28;20140;-71
2022/06/14 02:39:52;;;;;;;0.80;0.50;;;;;;;26.43;36.78;99366.13;5006735;28;20050;-72
2022/06/14 02:42:29;;;;;;;0.80;0.40;;;;;;;26.45;36.45;99368.53;5018775;28;20373;-71
2022/06/14 02:45:18;;;;;;;0.45;0.40;;;;;;;26.44;36.45;99367.75;4993297;28;20088;-71
2022/06/14 02:47:50;;;;;;;0.70;0.47;;;;;;;26.42;36.84;99372.16;5011962;28;20100;-70
2022/06/14 02:50:30;;;;;;;0.40;0.40;;;;;;;26.40;36.70;99366.97;5019548;28;20060;-70
2022/06/14 02:53:14;;;;;;;0.43;0.40;;;;;;;26.43;36.85;99376.53;5016789;28;20046;-71
2022/06/14 02:55:48;;;;;;;1.23;0.52;;;;;;;26.40;36.60;99378.19;5012829;28;20111;-71
2022/06/14 02:58:21;;;;;;;0.50;0.40;;;;;;;26.39;36.60;99376.59;5012925;28;20047;-71
2022/06/14 03:00:58;;;;;;;0.82;0.47;;;;;;;26.40;36.55;99375.38;5012058;28;20050;-71
2022/06/14 03:03:38;;;;;;;0.55;0.40;;;;;;;26.40;36.68;99366.16;5020575;28;20046;-71
2022/06/14 03:06:06;;;;;;;0.40;0.40;;;;;;;26.40;36.77;99360.56;5019212;28;20042;-71
2022/06/14 03:08:48;;;;;;;0.80;0.50;;;;;;;26.35;37.18;99364.56;5011807;28;20057;-71
2022/06/14 03:11:22;;;;;;;0.80;0.50;;;;;;;26.32;37.31;99366.19;5009966;28;20038;-71
2022/06/14 03:14:00;;;;;;;0.47;0.35;;;;;;;26.32;36.85;99360.59;5009200;28;20050;-71
2022/06/14 03:16:35;;;;;;;1.15;0.50;;;;;;;26.34;36.85;99366.56;5008176;28;20498;-72
2022/06/14 03:19:18;;;;;;;2.03;0.30;;;;;;;26.34;37.00;99371.38;5009051;28;20046;-71
2022/06/14 03:21:54;;;;;;;0.40;0.40;;;;;;;26.34;37.21;99362.97;5011158;28;20092;-71
2022/06/14 03:25:21;;;;;;;0.40;0.40;;;;;;;26.32;37.20;99362.59;5021437;28;20153;-71
2022/06/14 03:28:04;;;;;;;0.65;0.50;;;;;;;26.33;37.21;99364.97;4944435;28;20130;-73
2022/06/14 03:30:35;;;;;;;0.73;0.50;;;;;;;26.32;37.32;99366.19;4963824;28;20046;-73
2022/06/14 03:33:22;;;;;;;1.17;0.50;;;;;;;26.33;37.21;99358.56;4970515;28;20050;-73
2022/06/14 03:35:51;;;;;;;0.93;0.40;;;;;;;26.29;37.30;99357.81;4969460;28;20047;-74
2022/06/14 03:38:16;;;;;;;0.60;0.47;;;;;;;26.29;36.96;99369.84;4961786;28;20054;-73
2022/06/14 03:40:44;;;;;;;0.30;0.30;;;;;;;26.29;36.94;99367.03;4970102;28;20067;-73
2022/06/14 03:43:11;;;;;;;0.85;0.50;;;;;;;26.24;37.01;99359.06;4974269;28;20438;-73
2022/06/14 03:45:47;;;;;;;0.93;0.60;;;;;;;26.29;37.31;99366.22;4978644;28;20046;-74
2022/06/14 03:48:13;;;;;;;0.32;0.30;;;;;;;26.30;37.08;99359.41;4970246;28;20588;-74
2022/06/14 03:50:47;;;;;;;0.73;0.55;;;;;;;26.27;37.01;99361.03;4968390;28;20051;-74
2022/06/14 03:53:37;;;;;;;0.80;0.40;;;;;;;26.28;37.27;99368.22;4977934;28;20050;-72
2022/06/14 03:56:36;;;;;;;0.30;0.30;;;;;;;26.27;37.11;99375.03;4969093;28;20054;-72
2022/06/14 03:59:37;;;;;;;0.68;0.57;;;;;;;26.26;37.38;99373.44;4968764;28;20101;-73
2022/06/14 04:02:52;;;;;;;0.73;0.40;;;;;;;26.24;37.41;99378.69;5004730;28;20124;-72
2022/06/14 04:05:43;;;;;;;0.73;0.43;;;;;;;26.25;37.45;99383.09;5023403;28;20527;-72
2022/06/14 04:08:29;;;;;;;0.55;0.45;;;;;;;26.25;37.53;99379.47;4966627;28;20046;-72
2022/06/14 04:11:24;;;;;;;1.10;0.60;;;;;;;26.24;37.22;99389.91;5017817;28;20136;-73
2022/06/14 04:13:59;;;;;;;0.80;0.57;;;;;;;26.25;37.30;99382.28;5014635;28;20081;-73
2022/06/14 04:16:42;;;;;;;0.73;0.50;;;;;;;26.24;37.70;99386.31;5010350;28;20056;-73
2022/06/14 04:19:31;;;;;;;1.08;0.60;;;;;;;26.23;37.62;99391.13;5017686;28;20129;-73
2022/06/14 04:22:14;;;;;;;0.60;0.50;;;;;;;26.23;37.70;99385.50;4998226;28;20521;-71
2022/06/14 04:24:52;;;;;;;1.35;0.50;;;;;;;26.23;37.67;99390.31;5023519;28;20139;-71
2022/06/14 04:27:26;;;;;;;0.75;0.50;;;;;;;26.21;37.85;99387.91;5008483;28;20042;-71
2022/06/14 04:30:16;;;;;;;0.75;0.50;;;;;;;26.24;37.74;99398.31;5016590;28;20030;-71
2022/06/14 04:33:26;;;;;;;1.00;0.55;;;;;;;26.26;37.63;99395.88;5024604;28;20425;-71
2022/06/14 04:36:02;;;;;;;0.40;0.40;;;;;;;26.24;37.68;99391.91;5021177;28;20045;-72
2022/06/14 04:38:37;;;;;;;0.68;0.60;;;;;;;26.22;37.70;99395.13;5012320;28;20107;-71
2022/06/14 04:41:13;;;;;;;0.55;0.43;;;;;;;26.23;37.93;99395.94;5022140;28;20053;-72
2022/06/14 04:43:50;;;;;;;0.60;0.47;;;;;;;26.23;37.75;99407.16;5020503;28;20041;-72
2022/06/14 04:46:22;;;;;;;0.98;0.55;;;;;;;26.23;38.16;99405.13;5019140;28;20510;-71
2022/06/14 04:49:11;;;;;;;0.82;0.47;;;;;;;26.25;37.91;99413.13;5013634;28;20049;-72
2022/06/14 04:51:45;;;;;;;1.00;0.63;;;;;;;26.27;37.87;99408.69;5003275;28;20046;-71
2022/06/14 04:54:14;;;;;;;0.57;0.47;;;;;;;26.27;38.03;99411.50;5031671;28;20105;-73
2022/06/14 04:56:55;;;;;;;0.63;0.50;;;;;;;26.25;38.22;99413.13;5036121;28;20129;-71
2022/06/14 04:59:30;;;;;;;0.73;0.52;;;;;;;26.25;38.15;99411.13;5021713;28;20038;-71
2022/06/14 05:02:22;;;;;;;0.70;0.50;;;;;;;26.28;38.24;99410.28;5017023;28;20406;-71
2022/06/14 05:04:55;;;;;;;1.30;0.50;;;;;;;26.30;38.10;99407.09;5018323;28;20041;-71
2022/06/14 05:07:31;;;;;;;0.60;0.50;;;;;;;26.30;38.20;99404.28;5024034;28;20053;-71
2022/06/14 05:10:03;;;;;;;0.55;0.40;;;;;;;26.31;38.34;99408.69;5014404;28;20054;-70
2022/06/14 05:12:41;;;;;;;0.70;0.50;;;;;;;26.30;38.47;99407.09;5014052;28;20088;-71
2022/06/14 05:15:49;;;;;;;0.50;0.50;;;;;;;26.33;38.57;99407.03;5018755;28;20051;-71
2022/06/14 05:18:25;;;;;;;1.10;0.60;;;;;;;26.32;38.49;99405.47;4983912;28;20056;-71
2022/06/14 05:21:04;;;;;;;0.95;0.60;;;;;;;26.35;38.59;99406.63;5021395;28;20060;-71
2022/06/14 05:23:40;;;;;;;0.60;0.50;;;;;;;26.35;38.32;99404.63;5017499;28;20046;-71
2022/06/14 05:26:15;;;;;;;0.63;0.50;;;;;;;26.30;38.69;99407.09;5018347;28;20073;-71
2022/06/14 05:29:18;;;;;;;1.10;0.63;;;;;;;26.25;38.75;99399.09;5002461;28;20430;-71
2022/06/14 05:32:07;;;;;;;1.30;0.68;;;;;;;26.22;38.76;99399.91;5021403;28;20060;-70
2022/06/14 05:34:51;;;;;;;2.38;0.55;;;;;;;26.26;38.93;99407.09;5000794;28;20088;-70
2022/06/14 05:37:28;;;;;;;0.57;0.43;;;;;;;26.23;39.35;99405.13;5009941;28;20034;-71
2022/06/14 05:40:08;;;;;;;2.28;0.60;;;;;;;26.23;39.15;99407.94;5026361;28;20076;-71
2022/06/14 05:42:44;;;;;;;1.13;0.52;;;;;;;26.19;39.41;99409.97;5021467;28;20068;-73
2022/06/14 05:45:12;;;;;;;1.05;0.60;;;;;;;26.18;39.54;99411.16;5019128;28;20502;-73
2022/06/14 05:47:47;;;;;;;1.75;0.68;;;;;;;26.17;39.51;99406.78;5025541;28;20513;-73
2022/06/14 05:50:21;;;;;;;0.45;0.40;;;;;;;26.17;39.29;99414.41;5011766;28;20405;-73
2022/06/14 05:52:54;;;;;;;0.88;0.60;;;;;;;26.17;39.54;99401.16;5013734;28;20590;-73
2022/06/14 05:55:38;;;;;;;;;;;;;;;26.23;39.54;99416.34;5008503;28;20045;-73
2022/06/14 05:58:07;;;;;;;0.63;0.50;;;;;;;26.22;39.05;99402.72;4988511;28;19972;-73
2022/06/14 06:01:00;;;;;;;0.85;0.60;;;;;;;26.24;39.31;99403.13;5014821;28;20502;-72
2022/06/14 06:03:44;;;;;;;1.55;0.70;;;;;;;26.45;38.77;99405.78;5009284;28;20129;-73
2022/06/14 06:06:24;;;;;;;0.45;0.45;;;;;;;26.61;38.80;99403.22;5018910;28;20136;-73
2022/06/14 06:08:56;;;;;;;0.93;0.70;;;;;;;26.67;38.55;99403.59;5005806;28;20851;-73
2022/06/14 06:11:28;;;;;;;0.57;0.47;;;;;;;26.66;38.52;99398.41;5012663;28;20529;-72
2022/06/14 06:14:02;;;;;;;0.80;0.50;;;;;;;26.68;38.73;99398.78;5011485;28;20041;-72
2022/06/14 06:19:50;;;;;;;0.52;0.40;;;;;;;26.73;38.34;99395.53;4977055;28;20798;-72
2022/06/14 06:22:32;;;;;;;1.05;0.60;;;;;;;26.76;38.25;99397.50;5023744;28;20095;-73
2022/06/14 06:25:04;;;;;;;2.05;0.60;;;;;;;26.75;38.38;99399.50;5024372;28;20049;-73
2022/06/14 06:27:46;;;;;;;0.50;0.47;;;;;;;26.77;38.45;99397.06;5010423;28;20053;-73
2022/06/14 06:30:17;;;;;;;0.68;0.50;;;;;;;26.79;38.26;99405.88;5010080;28;20044;-72
2022/06/14 06:32:43;;;;;;;0.93;0.60;;;;;;;26.83;38.57;99386.19;5017634;28;20045;-71
2022/06/14 06:35:11;;;;;;;1.17;0.52;;;;;;;26.83;38.51;99381.38;5012924;28;20057;-71
2022/06/14 06:37:53;;;;;;;1.15;0.63;;;;;;;26.78;38.58;99381.81;5011878;28;20144;-72
2022/06/14 06:40:23;;;;;;;7.78;2.30;;;;;;;26.75;38.70;99374.25;5022580;28;20108;-71
2022/06/14 06:43:02;;;;;;;9.30;4.20;;;;;;;26.72;38.16;99380.69;5016680;28;20052;-72
2022/06/14 06:45:35;;;;;;;9.25;6.38;;;;;;;26.64;38.29;99369.94;4997441;28;20046;-71
2022/06/14 06:48:11;;;;;;;9.18;6.13;;;;;;;26.56;38.43;99367.19;5016788;28;20061;-72
2022/06/14 06:50:53;;;;;;;9.88;5.45;;;;;;;26.46;38.84;99376.53;5019089;28;20438;-71
2022/06/14 06:53:23;;;;;;;10.57;3.90;;;;;;;26.46;38.40;99368.13;5010504;28;20045;-71
2022/06/14 06:56:12;;;;;;;7.93;3.42;;;;;;;26.44;38.63;99364.94;5015663;28;20125;-71
2022/06/14 06:58:46;;;;;;;8.88;2.53;;;;;;;26.45;38.59;99365.72;4999253;28;20057;-70
2022/06/14 07:01:31;;;;;;;7.38;2.58;;;;;;;26.43;38.55;99357.69;5007367;28;20049;-71
2022/06/14 07:04:11;;;;;;;6.22;1.67;;;;;;;26.45;38.51;99357.31;5000953;28;20046;-70
2022/06/14 07:06:47;;;;;;;4.03;1.55;;;;;;;26.44;38.75;99355.72;5008136;28;20064;-70
2022/06/14 07:09:28;;;;;;;9.05;1.30;;;;;;;26.47;39.03;99355.69;5003421;28;20063;-69
2022/06/14 07:12:02;;;;;;;5.40;1.50;;;;;;;26.53;39.49;99353.22;5007043;28;20049;-70
2022/06/14 07:14:35;;;;;;;2.58;1.10;;;;;;;26.58;39.73;99347.16;4997288;28;20129;-70
2022/06/14 07:17:07;;;;;;;4.90;1.02;;;;;;;26.66;40.14;99351.50;5004771;28;20095;-69
2022/06/14 07:19:44;;;;;;;3.45;1.20;;;;;;;26.68;40.30;99351.88;5003550;28;20092;-70
2022/06/14 07:22:17;;;;;;;2.78;1.38;;;;;;;26.75;40.54;99351.00;5023097;28;20054;-70
2022/06/14 07:25:00;;;;;;;3.80;1.15;;;;;;;26.77;40.42;99346.56;5014931;28;20035;-70
2022/06/14 07:27:31;;;;;;;2.80;1.00;;;;;;;26.81;39.98;99341.72;5003399;28;20046;-70
2022/06/14 07:30:08;;;;;;;4.47;0.90;;;;;;;26.84;40.24;99343.66;5002961;28;20084;-69
2022/06/14 07:32:46;;;;;;;2.85;0.90;;;;;;;26.87;40.06;99340.03;4979438;28;20066;-69
2022/06/14 07:35:17;;;;;;;3.05;1.20;;;;;;;26.91;40.04;99342.78;4994859;28;20054;-69
2022/06/14 07:37:53;;;;;;;1.73;0.73;;;;;;;26.88;40.36;99338.03;4998532;28;20099;-70
2022/06/14 07:40:19;;;;;;;3.65;1.20;;;;;;;26.94;40.16;99332.75;5018218;28;20145;-68
2022/06/14 07:43:19;;;;;;;6.60;0.80;;;;;;;26.94;40.48;99321.53;5007800;28;20124;-71
2022/06/14 07:45:49;;;;;;;2.55;0.90;;;;;;;26.95;40.84;99325.94;4996603;28;20050;-70
2022/06/14 07:48:30;;;;;;;4.82;1.02;;;;;;;26.97;40.55;99323.50;4997208;28;20061;-72
2022/06/14 07:51:09;;;;;;;1.70;0.90;;;;;;;26.99;40.67;99323.84;4992994;28;20107;-72
2022/06/14 07:53:44;;;;;;;2.40;0.90;;;;;;;27.05;40.77;99322.22;5003657;28;20077;-69
2022/06/14 07:56:16;;;;;;;1.25;0.60;;;;;;;27.10;40.54;99324.56;4992939;28;20052;-71
2022/06/14 07:58:49;;;;;;;1.55;0.60;;;;;;;27.07;40.86;99316.97;4993563;28;20069;-72
2022/06/14 08:01:32;;;;;;;2.95;0.90;;;;;;;27.07;40.94;99314.94;5000191;28;20038;-72
2022/06/14 08:04:21;;;;;;;9.98;1.30;;;;;;;27.10;41.14;99314.13;5000569;28;20453;-74
2022/06/14 08:06:53;;;;;;;1.20;0.68;;;;;;;27.15;41.24;99305.25;4996652;28;20045;-71
2022/06/14 08:09:29;;;;;;;2.15;0.82;;;;;;;27.15;41.36;99308.06;4994667;28;20127;-71
2022/06/14 08:11:57;;;;;;;1.48;0.60;;;;;;;27.25;41.40;99295.06;4985548;28;20108;-71
2022/06/14 08:14:39;;;;;;;2.63;0.98;;;;;;;27.24;41.48;99296.28;4993265;28;20165;-72
2022/06/14 08:17:09;;;;;;;1.27;0.60;;;;;;;27.23;41.46;99294.72;4996961;28;20056;-71
2022/06/14 08:19:43;;;;;;;2.50;0.75;;;;;;;27.27;41.44;99295.44;4982078;28;20081;-71
2022/06/14 08:22:36;;;;;;;2.30;0.90;;;;;;;27.25;41.70;99295.06;5000123;28;20081;-69
2022/06/14 08:25:11;;;;;;;1.52;0.82;;;;;;;27.24;41.89;99284.28;4968217;28;21780;-69
2022/06/14 08:27:42;;;;;;;3.60;0.80;;;;;;;27.27;41.53;99289.81;4994415;28;20050;-74
2022/06/14 08:30:20;;;;;;;1.77;0.80;;;;;;;27.29;41.58;99281.78;4995159;28;20049;-70
2022/06/14 08:32:55;;;;;;;4.85;0.90;;;;;;;27.27;41.71;99275.78;4993081;28;20128;-70
2022/06/14 08:35:40;;;;;;;2.67;1.40;;;;;;;27.33;40.95;99271.28;4999380;28;20042;-74
2022/06/14 08:38:18;;;;;;;4.05;1.27;;;;;;;27.33;40.90;99278.91;4997515;28;20053;-71
2022/06/14 08:40:56;;;;;;;4.18;1.20;;;;;;;27.28;40.48;99277.38;4999236;28;20084;-70
2022/06/14 08:43:32;;;;;;;1.92;0.90;;;;;;;27.26;40.41;99279.81;4988848;28;20103;-73
2022/06/14 08:46:21;;;;;;;3.90;1.00;;;;;;;27.21;40.58;99271.84;4979121;28;20077;-71
2022/06/14 08:48:55;;;;;;;2.20;1.02;;;;;;;27.25;40.38;99274.63;4998900;28;20044;-70
2022/06/14 08:51:33;;;;;;;1.67;0.93;;;;;;;27.23;40.19;99266.63;4999456;28;20137;-71
2022/06/14 08:54:21;;;;;;;3.88;0.90;;;;;;;27.27;40.15;99253.31;5002509;28;20493;-69
2022/06/14 08:57:08;;;;;;;3.78;1.10;;;;;;;27.29;40.11;99259.31;4980354;28;20351;-70
2022/06/14 08:59:52;;;;;;;6.13;0.90;;;;;;;27.32;39.98;99254.88;4996061;28;20049;-69
2022/06/14 09:02:55;;;;;;;2.20;0.90;;;;;;;27.32;39.64;99252.84;5001673;28;20049;-70
2022/06/14 09:05:47;;;;;;;1.13;0.80;;;;;;;27.32;39.72;99252.84;5008922;28;20052;-67
2022/06/14 09:08:25;;;;;;;4.07;1.10;;;;;;;27.27;39.54;99250.50;5014056;28;20053;-77
2022/06/14 09:10:53;;;;;;;3.45;1.48;;;;;;;27.24;39.45;99256.97;5015971;28;20056;-72
2022/06/14 09:13:48;;;;;;;3.85;1.70;;;;;;;27.24;39.56;99248.56;4995790;28;20064;-69
2022/06/14 09:16:22;;;;;;;5.32;2.60;;;;;;;27.23;39.35;99237.75;5000635;28;20037;-70
2022/06/14 09:18:54;;;;;;;7.88;2.50;;;;;;;27.20;39.47;99244.19;5015841;28;20048;-71
2022/06/14 09:21:21;;;;;;;2.70;1.70;;;;;;;27.18;39.54;99247.44;4994270;28;20144;-73
2022/06/14 09:23:59;;;;;;;7.43;1.65;;;;;;;27.17;39.89;99240.22;4993559;28;20034;-71
2022/06/14 09:27:04;;;;;;;5.13;1.70;;;;;;;27.20;39.91;99242.19;4985113;28;20060;-72
2022/06/14 09:30:14;;;;;;;7.43;1.80;;;;;;;27.27;39.67;99233.66;4999839;28;20041;-71
2022/06/14 09:33:10;;;;;;;5.50;1.38;;;;;;;27.29;39.85;99228.44;4895645;29;21130;-70
2022/06/14 09:35:57;;;;;;;6.38;1.77;;;;;;;27.30;39.90;99227.22;4903612;29;20048;-69
2022/06/14 09:39:00;;;;;;;2.00;1.20;;;;;;;27.28;40.19;99218.38;4892587;29;20198;-70
2022/06/14 09:41:45;;;;;;;3.03;1.75;;;;;;;27.26;40.25;99214.44;4913986;29;20040;-71
2022/06/14 09:44:40;;;;;;;5.45;1.60;;;;;;;27.17;40.62;99209.34;4908387;29;20052;-71
2022/06/14 09:47:30;;;;;;;2.03;1.10;;;;;;;27.21;40.86;99201.66;4893581;29;20099;-70
2022/06/14 09:50:14;;;;;;;2.72;1.30;;;;;;;27.34;40.34;99197.03;4919483;29;20734;-71
2022/06/14 09:52:52;;;;;;;2.72;1.23;;;;;;;27.43;40.37;99190.88;4917676;29;20055;-70
2022/06/14 09:55:46;;;;;;;3.40;1.05;;;;;;;27.45;40.24;99187.66;4909568;29;20455;-69
2022/06/14 09:58:42;;;;;;;3.10;1.02;;;;;;;27.38;39.96;99186.56;4907970;29;20064;-71
2022/06/14 10:01:17;;;;;;;6.13;1.70;;;;;;;27.44;39.57;99181.25;4904430;29;20048;-73
2022/06/14 10:04:20;;;;;;;4.32;1.38;;;;;;;27.43;39.43;99177.66;4906899;29;21094;-73
2022/06/14 10:07:00;;;;;;;2.25;1.20;;;;;;;27.46;39.43;99178.81;4953170;28;20103;-73
2022/06/14 10:09:41;;;;;;;5.53;1.05;;;;;;;27.42;39.51;99176.03;5003601;28;20426;-73
2022/06/14 10:12:33;;;;;;;5.70;1.30;;;;;;;27.45;39.41;99173.63;4980133;28;20077;-71
2022/06/14 10:15:29;;;;;;;3.55;1.30;;;;;;;27.45;39.24;99168.00;4995524;28;20116;-73
2022/06/14 10:18:22;;;;;;;5.72;1.25;;;;;;;27.46;39.02;99173.19;4990187;28;20153;-75
2022/06/14 10:20:52;;;;;;;3.05;1.00;;;;;;;27.47;39.10;99168.38;5017262;28;20038;-73
2022/06/14 10:23:36;;;;;;;2.75;1.20;;;;;;;27.48;39.11;99167.94;5018590;28;20361;-73
2022/06/14 10:29:07;;;;;;;4.68;1.30;;;;;;;27.46;38.98;99166.78;5018308;28;20068;-73
2022/06/14 10:31:38;;;;;;;5.15;1.90;;;;;;;27.47;38.61;99162.75;5011974;28;20053;-74
2022/06/14 10:34:28;;;;;;;4.18;1.98;;;;;;;27.47;39.07;99148.69;5012257;28;20116;-70
2022/06/14 10:37:28;;;;;;;3.03;1.67;;;;;;;27.48;38.90;99153.88;5011297;28;20050;-71
2022/06/14 10:40:09;;;;;;;3.83;1.70;;;;;;;27.51;38.94;99161.47;5024071;28;20049;-69
2022/06/14 10:43:00;;;;;;;5.75;1.42;;;;;;;27.49;38.85;99152.66;5000126;28;20038;-68
2022/06/14 10:45:31;;;;;;;2.22;1.40;;;;;;;27.51;38.71;99155.06;5020955;28;20093;-71
2022/06/14 10:48:31;;;;;;;4.60;1.60;;;;;;;27.49;38.96;99151.88;5015266;28;20506;-71
2022/06/14 10:51:31;;;;;;;3.22;1.40;;;;;;;27.50;38.92;99154.25;5012450;28;20045;-67
2022/06/14 10:54:21;;;;;;;5.68;1.27;;;;;;;27.50;38.93;99154.25;5010820;28;20037;-69
2022/06/14 10:56:58;;;;;;;4.80;1.27;;;;;;;27.49;38.77;99154.69;5003693;28;20037;-69
2022/06/14 10:59:47;;;;;;;3.00;1.20;;;;;;;27.49;38.70;99157.50;5009893;28;20083;-69
2022/06/14 11:03:00;;;;;;;2.85;1.00;;;;;;;27.41;38.73;99140.75;4987451;28;20041;-69
2022/06/14 11:05:50;;;;;;;3.03;1.25;;;;;;;27.41;38.64;99143.56;4993583;28;20062;-70
2022/06/14 11:08:36;;;;;;;2.95;1.20;;;;;;;27.43;38.81;99140.31;5007132;28;20428;-70
2022/06/14 11:11:59;;;;;;;6.28;1.10;;;;;;;27.49;38.84;99137.81;5017654;28;20045;-70
2022/06/14 11:14:42;;;;;;;1.58;0.93;;;;;;;27.50;39.27;99139.41;4934539;29;20105;-70
2022/06/14 11:17:32;;;;;;;4.13;1.00;;;;;;;27.51;39.25;99139.00;4935717;29;20051;-70
2022/06/14 11:20:31;;;;;;;6.18;0.90;;;;;;;27.50;39.43;99140.19;4939211;28;20162;-70
2022/06/14 11:23:23;;;;;;;1.20;0.80;;;;;;;27.52;39.94;99142.59;4937415;28;20078;-71
2022/06/14 11:26:14;;;;;;;2.72;1.10;;;;;;;27.52;39.97;99134.97;4935012;29;20048;-71
2022/06/14 11:28:55;;;;;;;1.38;0.88;;;;;;;27.51;40.26;99129.78;4942583;28;20570;-70
2022/06/14 11:31:31;;;;;;;2.40;1.00;;;;;;;27.50;40.47;99128.16;4938326;28;20031;-71
2022/06/14 11:34:18;;;;;;;3.50;1.75;;;;;;;27.37;39.66;99119.56;4933251;29;20047;-69
2022/06/14 11:37:05;;;;;;;3.42;0.90;;;;;;;27.06;40.88;99116.84;4943271;28;20523;-71
2022/06/14 11:40:02;;;;;;;2.22;1.30;;;;;;;26.96;42.82;99117.00;4925313;29;20079;-71
2022/06/14 11:42:44;;;;;;;2.13;1.00;;;;;;;26.93;43.63;99107.38;4935734;29;20512;-70
2022/06/14 11:45:25;;;;;;;2.03;1.10;;;;;;;26.85;42.27;99105.91;4986247;28;20037;-72
2022/06/14 11:48:04;;;;;;;2.90;0.93;;;;;;;26.69;41.29;99112.16;4994879;28;20919;-71
2022/06/14 11:50:39;;;;;;;3.38;1.10;;;;;;;26.66;42.88;99110.22;5013821;28;20042;-69
2022/06/14 11:53:29;;;;;;;4.30;1.05;;;;;;;26.72;43.58;99108.53;5009394;28;20573;-70
2022/06/14 11:56:14;;;;;;;1.77;1.00;;;;;;;26.66;42.29;99087.75;5013929;28;20205;-73
2022/06/14 11:59:15;;;;;;;2.35;0.95;;;;;;;26.58;42.50;99098.28;5009525;28;20085;-70
2022/06/14 12:01:59;;;;;;;4.93;0.98;;;;;;;26.60;44.03;99093.03;5008800;28;20046;-69
2022/06/14 12:04:38;;;;;;;1.60;0.95;;;;;;;26.65;44.56;99083.38;5014521;28;20037;-72
2022/06/14 12:07:16;;;;;;;4.85;1.25;;;;;;;26.60;43.63;99075.44;5021221;28;20050;-71
2022/06/14 12:10:12;;;;;;;1.95;0.82;;;;;;;26.53;43.98;99076.31;4998244;28;20612;-70
2022/06/14 12:12:40;;;;;;;1.85;1.00;;;;;;;26.57;44.95;99079.06;5016901;28;20476;-73
2022/06/14 12:15:14;;;;;;;1.65;0.90;;;;;;;26.66;45.03;99075.75;5013388;28;20053;-70
2022/06/14 12:17:48;;;;;;;2.00;1.02;;;;;;;26.72;44.61;99068.41;5022493;28;20168;-71
2022/06/14 12:20:19;;;;;;;3.30;1.00;;;;;;;26.71;43.33;99073.25;5011754;28;20183;-76
2022/06/14 12:23:20;;;;;;;2.38;0.90;;;;;;;26.65;44.79;99069.34;5014051;28;20057;-75
2022/06/14 12:29:20;;;;;;;2.00;0.90;;;;;;;26.80;44.90;99055.91;4957712;28;20118;-76
2022/06/14 12:31:54;;;;;;;2.00;0.90;;;;;;;26.68;43.06;99062.09;4939711;28;20542;-74
2022/06/14 12:34:29;;;;;;;2.90;0.80;;;;;;;26.61;44.96;99058.16;4960793;28;20035;-77
2022/06/14 12:36:55;;;;;;;2.08;0.90;;;;;;;26.60;45.18;99050.97;4959230;28;20553;-74
2022/06/14 12:39:27;;;;;;;4.15;0.80;;;;;;;26.64;45.50;99050.91;4942179;28;20047;-74
2022/06/14 12:41:59;;;;;;;1.10;0.73;;;;;;;26.68;44.04;99046.03;4959734;28;20047;-74
2022/06/14 12:44:27;;;;;;;2.25;1.00;;;;;;;26.63;42.68;99042.91;4931586;28;20435;-73
2022/06/14 12:46:55;;;;;;;1.38;0.90;;;;;;;26.51;43.44;99033.09;4952279;28;20566;-77